Accueil
METAR-TAF:

METAR-TAF

Aéroports :

Locarno, Suisse

latitude: 46-09-55N, longitude: 8-52-40E, altitude: 198 m

Observation

Le bulletin a été fait il y a 38 minutes, à 01:20 UTC
Vent 2 kt de direction variable
Température 2°C
Humidité 87%
Pression 1019 hPa
Visibilité 10 km ou plus

METAR: LSZL 170120Z AUTO VRB02KT 9999NDV NCD 02/00 Q1019 RMK

Heure: 03:58 (01:58 UTC)

Prévision

Le bulletin a été fait il y a 8 heures et 33 minutes, à 17:25 UTC
Prévision valable du 16 à 18 UTC au 17 à 03 UTC
Vent 3 kt de ouest/sud-ouest
Visibilité 10 km ou plus
Quelques nuages à une hauteur de 9000 ft
Probabilité 30%
du 17 à 00 UTC au 17 à 03 UTC
Visibilité 10 km ou plus
pas de nuages en-dessous de 1500 mètres et pas de cumulonimbus.

TAF: LSZL 161725Z 1618/1703 24003KT 9999 FEW090 PROB30 1700/1703 CAVOK

Observations et prévisions météorologiques de plus de 4000 aéroports (messages METAR et TAF).

Les stations disponibles sont représentées par des disques jaunes et rouges sur la carte.

Passer la souris dessus pour voir le nom de la station.

Cliquer dessus pour voir les observations et prévisions météorologiques.

Pour changer de carte: cliquez sur les boutons verts avec une croix noire pour zoomer, sur le bouton vert avec un tiret pour effectuer un zoom arrière, ou sur les flèches vertes pour les cartes adjacentes.


METAR-TAF: